sensor_id;sensor_type;location;lat;lon;timestamp;P1;durP1;ratioP1;P2;durP2;ratioP2
795;SDS011;381;48.770;9.188;2022-07-23T00:03:04;6.00;;;5.60;;
795;SDS011;381;48.770;9.188;2022-07-23T00:08:06;7.63;;;7.03;;
795;SDS011;381;48.770;9.188;2022-07-23T00:13:10;6.60;;;6.20;;
795;SDS011;381;48.770;9.188;2022-07-23T00:18:12;6.13;;;5.83;;
795;SDS011;381;48.770;9.188;2022-07-23T00:23:14;6.40;;;6.00;;
795;SDS011;381;48.770;9.188;2022-07-23T00:28:17;6.50;;;6.00;;
795;SDS011;381;48.770;9.188;2022-07-23T00:33:19;6.30;;;5.80;;
795;SDS011;381;48.770;9.188;2022-07-23T00:38:22;6.53;;;6.10;;
795;SDS011;381;48.770;9.188;2022-07-23T00:43:25;7.70;;;6.03;;
795;SDS011;381;48.770;9.188;2022-07-23T00:48:27;6.47;;;6.07;;
795;SDS011;381;48.770;9.188;2022-07-23T00:53:29;6.67;;;6.27;;
795;SDS011;381;48.770;9.188;2022-07-23T00:58:33;6.17;;;5.77;;
795;SDS011;381;48.770;9.188;2022-07-23T01:03:36;6.60;;;6.10;;
795;SDS011;381;48.770;9.188;2022-07-23T01:08:38;6.23;;;5.73;;
795;SDS011;381;48.770;9.188;2022-07-23T01:13:43;6.33;;;5.93;;
795;SDS011;381;48.770;9.188;2022-07-23T01:18:45;6.20;;;5.80;;
795;SDS011;381;48.770;9.188;2022-07-23T01:23:49;6.50;;;6.00;;
795;SDS011;381;48.770;9.188;2022-07-23T01:28:51;6.00;;;5.60;;
795;SDS011;381;48.770;9.188;2022-07-23T01:33:53;6.20;;;5.80;;
795;SDS011;381;48.770;9.188;2022-07-23T01:38:57;6.63;;;6.23;;
795;SDS011;381;48.770;9.188;2022-07-23T01:43:59;6.50;;;6.10;;
795;SDS011;381;48.770;9.188;2022-07-23T01:49:02;5.83;;;5.50;;
795;SDS011;381;48.770;9.188;2022-07-23T01:54:25;6.60;;;6.20;;
795;SDS011;381;48.770;9.188;2022-07-23T01:59:28;6.13;;;5.63;;
795;SDS011;381;48.770;9.188;2022-07-23T02:04:33;6.90;;;6.50;;
795;SDS011;381;48.770;9.188;2022-07-23T02:09:38;6.50;;;6.10;;
795;SDS011;381;48.770;9.188;2022-07-23T02:14:40;6.30;;;5.90;;
795;SDS011;381;48.770;9.188;2022-07-23T02:19:42;6.73;;;6.20;;
795;SDS011;381;48.770;9.188;2022-07-23T02:24:46;6.60;;;6.00;;
795;SDS011;381;48.770;9.188;2022-07-23T02:29:48;6.20;;;5.80;;
795;SDS011;381;48.770;9.188;2022-07-23T02:34:50;7.03;;;6.43;;
795;SDS011;381;48.770;9.188;2022-07-23T02:39:56;6.10;;;5.70;;
795;SDS011;381;48.770;9.188;2022-07-23T02:44:58;7.03;;;6.33;;
795;SDS011;381;48.770;9.188;2022-07-23T02:50:00;6.23;;;5.73;;
795;SDS011;381;48.770;9.188;2022-07-23T02:55:06;6.47;;;6.07;;
795;SDS011;381;48.770;9.188;2022-07-23T03:00:09;7.20;;;6.53;;
795;SDS011;381;48.770;9.188;2022-07-23T03:05:13;6.23;;;5.80;;
795;SDS011;381;48.770;9.188;2022-07-23T03:10:16;7.20;;;6.70;;
795;SDS011;381;48.770;9.188;2022-07-23T03:15:20;6.20;;;5.80;;
795;SDS011;381;48.770;9.188;2022-07-23T03:20:22;6.20;;;5.77;;
795;SDS011;381;48.770;9.188;2022-07-23T03:25:26;6.60;;;6.10;;
795;SDS011;381;48.770;9.188;2022-07-23T03:30:28;7.03;;;6.53;;
795;SDS011;381;48.770;9.188;2022-07-23T03:35:30;7.43;;;7.00;;
795;SDS011;381;48.770;9.188;2022-07-23T03:40:47;7.60;;;6.17;;
795;SDS011;381;48.770;9.188;2022-07-23T03:45:49;7.20;;;6.70;;
795;SDS011;381;48.770;9.188;2022-07-23T03:50:51;7.17;;;6.67;;
795;SDS011;381;48.770;9.188;2022-07-23T03:55:55;6.07;;;5.70;;
795;SDS011;381;48.770;9.188;2022-07-23T04:00:57;7.53;;;7.13;;
795;SDS011;381;48.770;9.188;2022-07-23T04:06:00;7.27;;;6.77;;
795;SDS011;381;48.770;9.188;2022-07-23T04:11:05;7.40;;;6.90;;
795;SDS011;381;48.770;9.188;2022-07-23T04:16:07;7.70;;;7.00;;
795;SDS011;381;48.770;9.188;2022-07-23T04:21:09;7.30;;;6.70;;
795;SDS011;381;48.770;9.188;2022-07-23T04:26:13;7.70;;;7.13;;
795;SDS011;381;48.770;9.188;2022-07-23T04:31:16;7.07;;;6.57;;
795;SDS011;381;48.770;9.188;2022-07-23T04:36:18;8.03;;;7.33;;
795;SDS011;381;48.770;9.188;2022-07-23T04:41:22;7.87;;;7.30;;
795;SDS011;381;48.770;9.188;2022-07-23T04:46:24;7.53;;;6.83;;
795;SDS011;381;48.770;9.188;2022-07-23T04:51:26;7.87;;;7.37;;
795;SDS011;381;48.770;9.188;2022-07-23T04:56:31;7.90;;;7.30;;
795;SDS011;381;48.770;9.188;2022-07-23T05:01:33;8.07;;;7.57;;
795;SDS011;381;48.770;9.188;2022-07-23T05:06:35;7.17;;;6.77;;
795;SDS011;381;48.770;9.188;2022-07-23T05:11:39;7.67;;;7.17;;
795;SDS011;381;48.770;9.188;2022-07-23T05:16:41;7.30;;;6.80;;
795;SDS011;381;48.770;9.188;2022-07-23T05:21:50;6.70;;;6.30;;
795;SDS011;381;48.770;9.188;2022-07-23T05:26:53;7.70;;;7.10;;
795;SDS011;381;48.770;9.188;2022-07-23T05:31:56;7.13;;;6.70;;
795;SDS011;381;48.770;9.188;2022-07-23T05:36:58;8.37;;;7.67;;
795;SDS011;381;48.770;9.188;2022-07-23T05:42:02;6.07;;;5.57;;
795;SDS011;381;48.770;9.188;2022-07-23T05:47:04;8.20;;;7.70;;
795;SDS011;381;48.770;9.188;2022-07-23T05:52:07;6.83;;;6.40;;
795;SDS011;381;48.770;9.188;2022-07-23T05:57:29;7.00;;;6.60;;
795;SDS011;381;48.770;9.188;2022-07-23T06:02:31;7.40;;;7.00;;
795;SDS011;381;48.770;9.188;2022-07-23T06:07:34;7.50;;;7.00;;
795;SDS011;381;48.770;9.188;2022-07-23T06:12:38;8.73;;;8.00;;
795;SDS011;381;48.770;9.188;2022-07-23T06:17:41;7.70;;;7.10;;
795;SDS011;381;48.770;9.188;2022-07-23T06:22:43;6.97;;;6.47;;
795;SDS011;381;48.770;9.188;2022-07-23T06:27:47;7.77;;;7.27;;
795;SDS011;381;48.770;9.188;2022-07-23T06:32:50;7.37;;;6.87;;
795;SDS011;381;48.770;9.188;2022-07-23T06:37:52;8.30;;;7.70;;
795;SDS011;381;48.770;9.188;2022-07-23T06:42:57;7.50;;;7.00;;
795;SDS011;381;48.770;9.188;2022-07-23T06:48:01;7.10;;;6.47;;
795;SDS011;381;48.770;9.188;2022-07-23T06:53:03;7.70;;;7.20;;
795;SDS011;381;48.770;9.188;2022-07-23T06:58:07;7.83;;;7.30;;
795;SDS011;381;48.770;9.188;2022-07-23T07:03:10;7.93;;;7.33;;
795;SDS011;381;48.770;9.188;2022-07-23T07:08:12;8.60;;;7.90;;
795;SDS011;381;48.770;9.188;2022-07-23T07:13:15;7.67;;;7.00;;
795;SDS011;381;48.770;9.188;2022-07-23T07:18:18;7.00;;;6.50;;
795;SDS011;381;48.770;9.188;2022-07-23T07:23:20;6.63;;;6.17;;
795;SDS011;381;48.770;9.188;2022-07-23T07:28:23;7.70;;;7.20;;
795;SDS011;381;48.770;9.188;2022-07-23T07:33:25;7.80;;;7.20;;
795;SDS011;381;48.770;9.188;2022-07-23T07:38:28;7.90;;;7.23;;
795;SDS011;381;48.770;9.188;2022-07-23T07:43:31;7.70;;;7.20;;
795;SDS011;381;48.770;9.188;2022-07-23T07:48:33;6.90;;;6.40;;
795;SDS011;381;48.770;9.188;2022-07-23T07:53:35;7.83;;;7.23;;
795;SDS011;381;48.770;9.188;2022-07-23T07:58:39;7.30;;;6.70;;
795;SDS011;381;48.770;9.188;2022-07-23T08:03:41;7.70;;;6.60;;
795;SDS011;381;48.770;9.188;2022-07-23T08:08:43;7.03;;;6.47;;
795;SDS011;381;48.770;9.188;2022-07-23T08:13:46;7.13;;;6.63;;
795;SDS011;381;48.770;9.188;2022-07-23T08:18:49;7.73;;;7.13;;
795;SDS011;381;48.770;9.188;2022-07-23T08:23:51;7.20;;;6.70;;
795;SDS011;381;48.770;9.188;2022-07-23T08:28:55;5.97;;;5.60;;
795;SDS011;381;48.770;9.188;2022-07-23T08:33:57;6.90;;;6.40;;
795;SDS011;381;48.770;9.188;2022-07-23T08:38:59;7.67;;;7.17;;
795;SDS011;381;48.770;9.188;2022-07-23T08:44:04;8.30;;;7.70;;
795;SDS011;381;48.770;9.188;2022-07-23T08:49:09;8.30;;;7.80;;
795;SDS011;381;48.770;9.188;2022-07-23T08:54:12;7.37;;;6.87;;
795;SDS011;381;48.770;9.188;2022-07-23T08:59:16;7.60;;;7.10;;
795;SDS011;381;48.770;9.188;2022-07-23T09:04:18;8.20;;;7.60;;
795;SDS011;381;48.770;9.188;2022-07-23T09:09:20;7.67;;;7.07;;
795;SDS011;381;48.770;9.188;2022-07-23T09:14:36;7.43;;;7.00;;
795;SDS011;381;48.770;9.188;2022-07-23T09:19:40;7.83;;;7.33;;
795;SDS011;381;48.770;9.188;2022-07-23T09:30:09;6.67;;;6.27;;
795;SDS011;381;48.770;9.188;2022-07-23T09:35:11;6.23;;;5.87;;
795;SDS011;381;48.770;9.188;2022-07-23T09:40:13;6.47;;;6.10;;
795;SDS011;381;48.770;9.188;2022-07-23T09:45:19;7.10;;;6.40;;
795;SDS011;381;48.770;9.188;2022-07-23T09:50:21;9.30;;;5.57;;
795;SDS011;381;48.770;9.188;2022-07-23T09:55:27;5.33;;;5.03;;
795;SDS011;381;48.770;9.188;2022-07-23T10:00:38;7.17;;;6.57;;
795;SDS011;381;48.770;9.188;2022-07-23T10:05:40;6.50;;;6.10;;
795;SDS011;381;48.770;9.188;2022-07-23T10:11:10;7.07;;;6.53;;
795;SDS011;381;48.770;9.188;2022-07-23T10:16:25;6.40;;;6.00;;
795;SDS011;381;48.770;9.188;2022-07-23T10:21:30;7.20;;;6.60;;
795;SDS011;381;48.770;9.188;2022-07-23T10:26:41;7.27;;;6.80;;
795;SDS011;381;48.770;9.188;2022-07-23T10:31:56;6.73;;;6.23;;
795;SDS011;381;48.770;9.188;2022-07-23T10:37:06;7.20;;;6.70;;
795;SDS011;381;48.770;9.188;2022-07-23T10:42:16;6.03;;;5.73;;
795;SDS011;381;48.770;9.188;2022-07-23T10:47:25;6.40;;;6.00;;
795;SDS011;381;48.770;9.188;2022-07-23T10:52:40;6.63;;;6.23;;
795;SDS011;381;48.770;9.188;2022-07-23T10:57:47;6.43;;;6.03;;
795;SDS011;381;48.770;9.188;2022-07-23T11:02:52;6.20;;;5.80;;
795;SDS011;381;48.770;9.188;2022-07-23T11:13:25;6.90;;;6.50;;
795;SDS011;381;48.770;9.188;2022-07-23T11:24:12;7.23;;;6.73;;
795;SDS011;381;48.770;9.188;2022-07-23T11:34:44;7.20;;;6.60;;
795;SDS011;381;48.770;9.188;2022-07-23T11:39:49;6.97;;;6.47;;
795;SDS011;381;48.770;9.188;2022-07-23T11:44:56;8.27;;;7.77;;
795;SDS011;381;48.770;9.188;2022-07-23T11:49:58;7.50;;;6.80;;
795;SDS011;381;48.770;9.188;2022-07-23T11:55:04;7.70;;;7.20;;
795;SDS011;381;48.770;9.188;2022-07-23T12:00:08;7.77;;;7.10;;
795;SDS011;381;48.770;9.188;2022-07-23T12:05:15;7.00;;;6.60;;
795;SDS011;381;48.770;9.188;2022-07-23T12:10:20;7.60;;;7.10;;
795;SDS011;381;48.770;9.188;2022-07-23T12:15:24;8.03;;;7.33;;
795;SDS011;381;48.770;9.188;2022-07-23T12:20:30;7.30;;;6.80;;
795;SDS011;381;48.770;9.188;2022-07-23T12:25:36;7.07;;;6.57;;
795;SDS011;381;48.770;9.188;2022-07-23T12:30:40;8.20;;;7.70;;
795;SDS011;381;48.770;9.188;2022-07-23T12:35:44;7.43;;;6.93;;
795;SDS011;381;48.770;9.188;2022-07-23T12:40:50;7.50;;;6.97;;
795;SDS011;381;48.770;9.188;2022-07-23T12:45:54;7.77;;;7.20;;
795;SDS011;381;48.770;9.188;2022-07-23T12:50:57;7.70;;;7.20;;
795;SDS011;381;48.770;9.188;2022-07-23T12:56:03;7.87;;;7.30;;
795;SDS011;381;48.770;9.188;2022-07-23T13:01:06;8.13;;;7.53;;
795;SDS011;381;48.770;9.188;2022-07-23T13:06:09;8.10;;;7.57;;
795;SDS011;381;48.770;9.188;2022-07-23T13:11:13;7.30;;;6.80;;
795;SDS011;381;48.770;9.188;2022-07-23T13:16:15;7.77;;;7.27;;
795;SDS011;381;48.770;9.188;2022-07-23T13:21:18;7.30;;;6.80;;
795;SDS011;381;48.770;9.188;2022-07-23T13:26:21;7.53;;;7.03;;
795;SDS011;381;48.770;9.188;2022-07-23T13:31:23;8.60;;;7.87;;
795;SDS011;381;48.770;9.188;2022-07-23T13:36:25;6.83;;;6.43;;
795;SDS011;381;48.770;9.188;2022-07-23T13:41:29;7.43;;;6.93;;
795;SDS011;381;48.770;9.188;2022-07-23T13:46:31;7.90;;;7.30;;
795;SDS011;381;48.770;9.188;2022-07-23T13:51:33;8.33;;;7.83;;
795;SDS011;381;48.770;9.188;2022-07-23T13:56:37;8.23;;;7.73;;
795;SDS011;381;48.770;9.188;2022-07-23T14:01:39;8.77;;;8.07;;
795;SDS011;381;48.770;9.188;2022-07-23T14:06:41;7.80;;;7.10;;
795;SDS011;381;48.770;9.188;2022-07-23T14:11:45;9.20;;;8.50;;
795;SDS011;381;48.770;9.188;2022-07-23T14:16:47;10.00;;;7.40;;
795;SDS011;381;48.770;9.188;2022-07-23T14:21:49;8.50;;;7.90;;
795;SDS011;381;48.770;9.188;2022-07-23T14:26:52;7.70;;;7.10;;
795;SDS011;381;48.770;9.188;2022-07-23T14:31:55;8.30;;;7.60;;
795;SDS011;381;48.770;9.188;2022-07-23T14:36:57;7.57;;;7.07;;
795;SDS011;381;48.770;9.188;2022-07-23T14:42:01;7.57;;;6.97;;
795;SDS011;381;48.770;9.188;2022-07-23T14:47:04;8.70;;;8.10;;
795;SDS011;381;48.770;9.188;2022-07-23T14:52:06;7.67;;;7.07;;
795;SDS011;381;48.770;9.188;2022-07-23T14:57:10;8.80;;;8.00;;
795;SDS011;381;48.770;9.188;2022-07-23T15:02:12;7.77;;;7.27;;
795;SDS011;381;48.770;9.188;2022-07-23T15:07:14;7.63;;;6.93;;
795;SDS011;381;48.770;9.188;2022-07-23T15:12:18;8.80;;;7.27;;
795;SDS011;381;48.770;9.188;2022-07-23T15:17:20;8.50;;;7.97;;
795;SDS011;381;48.770;9.188;2022-07-23T15:22:22;8.43;;;7.93;;
795;SDS011;381;48.770;9.188;2022-07-23T15:27:26;8.47;;;7.87;;
795;SDS011;381;48.770;9.188;2022-07-23T15:32:29;8.50;;;7.70;;
795;SDS011;381;48.770;9.188;2022-07-23T15:37:31;8.17;;;7.63;;
795;SDS011;381;48.770;9.188;2022-07-23T15:42:34;8.70;;;8.10;;
795;SDS011;381;48.770;9.188;2022-07-23T15:47:36;8.27;;;7.70;;
795;SDS011;381;48.770;9.188;2022-07-23T15:52:40;8.43;;;7.83;;
795;SDS011;381;48.770;9.188;2022-07-23T15:57:43;8.37;;;7.73;;
795;SDS011;381;48.770;9.188;2022-07-23T16:02:46;8.00;;;7.50;;
795;SDS011;381;48.770;9.188;2022-07-23T16:07:48;8.33;;;7.73;;
795;SDS011;381;48.770;9.188;2022-07-23T16:12:51;8.83;;;8.17;;
795;SDS011;381;48.770;9.188;2022-07-23T16:17:54;9.40;;;8.10;;
795;SDS011;381;48.770;9.188;2022-07-23T16:22:56;8.87;;;8.27;;
795;SDS011;381;48.770;9.188;2022-07-23T16:27:59;8.80;;;8.10;;
795;SDS011;381;48.770;9.188;2022-07-23T16:33:02;9.40;;;8.60;;
795;SDS011;381;48.770;9.188;2022-07-23T16:38:04;9.53;;;8.67;;
795;SDS011;381;48.770;9.188;2022-07-23T16:43:07;9.53;;;8.73;;
795;SDS011;381;48.770;9.188;2022-07-23T16:48:10;8.80;;;8.10;;
795;SDS011;381;48.770;9.188;2022-07-23T16:53:12;9.87;;;9.17;;
795;SDS011;381;48.770;9.188;2022-07-23T16:58:15;10.27;;;9.57;;
795;SDS011;381;48.770;9.188;2022-07-23T17:03:18;14.20;;;10.17;;
795;SDS011;381;48.770;9.188;2022-07-23T17:08:20;10.50;;;9.70;;
795;SDS011;381;48.770;9.188;2022-07-23T17:13:24;10.20;;;9.40;;
795;SDS011;381;48.770;9.188;2022-07-23T17:18:26;10.17;;;9.47;;
795;SDS011;381;48.770;9.188;2022-07-23T17:23:28;10.57;;;9.67;;
795;SDS011;381;48.770;9.188;2022-07-23T17:28:32;10.27;;;9.37;;
795;SDS011;381;48.770;9.188;2022-07-23T17:33:34;11.00;;;10.20;;
795;SDS011;381;48.770;9.188;2022-07-23T17:38:36;10.00;;;9.30;;
795;SDS011;381;48.770;9.188;2022-07-23T17:43:40;11.70;;;10.80;;
795;SDS011;381;48.770;9.188;2022-07-23T17:48:43;12.03;;;11.03;;
795;SDS011;381;48.770;9.188;2022-07-23T17:53:45;11.17;;;10.17;;
795;SDS011;381;48.770;9.188;2022-07-23T17:58:48;12.07;;;10.83;;
795;SDS011;381;48.770;9.188;2022-07-23T18:03:51;11.87;;;10.10;;
795;SDS011;381;48.770;9.188;2022-07-23T18:08:53;12.93;;;10.97;;
795;SDS011;381;48.770;9.188;2022-07-23T18:13:56;11.37;;;10.47;;
795;SDS011;381;48.770;9.188;2022-07-23T18:18:59;11.33;;;10.43;;
795;SDS011;381;48.770;9.188;2022-07-23T18:24:01;12.23;;;11.13;;
795;SDS011;381;48.770;9.188;2022-07-23T18:29:05;12.00;;;11.00;;
795;SDS011;381;48.770;9.188;2022-07-23T18:34:07;12.10;;;11.17;;
795;SDS011;381;48.770;9.188;2022-07-23T18:39:09;11.43;;;10.63;;
795;SDS011;381;48.770;9.188;2022-07-23T18:44:13;12.33;;;11.43;;
795;SDS011;381;48.770;9.188;2022-07-23T18:49:15;11.40;;;10.50;;
795;SDS011;381;48.770;9.188;2022-07-23T18:54:17;13.03;;;12.07;;
795;SDS011;381;48.770;9.188;2022-07-23T18:59:21;12.97;;;11.70;;
795;SDS011;381;48.770;9.188;2022-07-23T19:04:23;11.53;;;10.73;;
795;SDS011;381;48.770;9.188;2022-07-23T19:09:26;11.73;;;10.83;;
795;SDS011;381;48.770;9.188;2022-07-23T19:14:29;11.57;;;10.77;;
795;SDS011;381;48.770;9.188;2022-07-23T19:19:32;12.43;;;11.53;;
795;SDS011;381;48.770;9.188;2022-07-23T19:24:34;12.20;;;11.10;;
795;SDS011;381;48.770;9.188;2022-07-23T19:29:39;12.40;;;11.40;;
795;SDS011;381;48.770;9.188;2022-07-23T19:34:41;11.10;;;10.10;;
795;SDS011;381;48.770;9.188;2022-07-23T19:39:44;11.67;;;10.77;;
795;SDS011;381;48.770;9.188;2022-07-23T19:44:47;12.30;;;11.07;;
795;SDS011;381;48.770;9.188;2022-07-23T19:49:52;12.10;;;11.10;;
795;SDS011;381;48.770;9.188;2022-07-23T19:54:54;12.00;;;11.20;;
795;SDS011;381;48.770;9.188;2022-07-23T19:59:57;12.70;;;11.70;;
795;SDS011;381;48.770;9.188;2022-07-23T20:04:59;11.80;;;10.90;;
795;SDS011;381;48.770;9.188;2022-07-23T20:10:02;11.30;;;10.37;;
795;SDS011;381;48.770;9.188;2022-07-23T20:15:07;12.07;;;10.90;;
795;SDS011;381;48.770;9.188;2022-07-23T20:20:10;12.40;;;11.37;;
795;SDS011;381;48.770;9.188;2022-07-23T20:25:13;12.63;;;11.30;;
795;SDS011;381;48.770;9.188;2022-07-23T20:30:16;12.00;;;11.10;;
795;SDS011;381;48.770;9.188;2022-07-23T20:35:18;12.40;;;11.40;;
795;SDS011;381;48.770;9.188;2022-07-23T20:40:20;12.17;;;11.30;;
795;SDS011;381;48.770;9.188;2022-07-23T20:45:24;12.23;;;11.40;;
795;SDS011;381;48.770;9.188;2022-07-23T20:50:26;11.07;;;10.27;;
795;SDS011;381;48.770;9.188;2022-07-23T20:55:29;13.73;;;12.63;;
795;SDS011;381;48.770;9.188;2022-07-23T21:00:32;12.40;;;11.40;;
795;SDS011;381;48.770;9.188;2022-07-23T21:05:35;13.03;;;11.93;;
795;SDS011;381;48.770;9.188;2022-07-23T21:10:37;12.23;;;11.40;;
795;SDS011;381;48.770;9.188;2022-07-23T21:15:41;12.50;;;11.50;;
795;SDS011;381;48.770;9.188;2022-07-23T21:20:43;12.20;;;11.23;;
795;SDS011;381;48.770;9.188;2022-07-23T21:26:03;12.20;;;11.20;;
795;SDS011;381;48.770;9.188;2022-07-23T21:31:07;12.73;;;11.73;;
795;SDS011;381;48.770;9.188;2022-07-23T21:36:10;11.60;;;10.70;;
795;SDS011;381;48.770;9.188;2022-07-23T21:41:12;12.33;;;11.43;;
795;SDS011;381;48.770;9.188;2022-07-23T21:46:15;12.43;;;11.30;;
795;SDS011;381;48.770;9.188;2022-07-23T21:51:17;13.00;;;12.10;;
795;SDS011;381;48.770;9.188;2022-07-23T21:56:20;13.13;;;12.13;;
795;SDS011;381;48.770;9.188;2022-07-23T22:01:23;12.10;;;11.20;;
795;SDS011;381;48.770;9.188;2022-07-23T22:06:25;12.30;;;11.30;;
795;SDS011;381;48.770;9.188;2022-07-23T22:11:27;12.93;;;11.77;;
795;SDS011;381;48.770;9.188;2022-07-23T22:16:31;13.13;;;11.97;;
795;SDS011;381;48.770;9.188;2022-07-23T22:21:33;12.47;;;11.57;;
795;SDS011;381;48.770;9.188;2022-07-23T22:26:35;13.10;;;12.00;;
795;SDS011;381;48.770;9.188;2022-07-23T22:31:39;12.70;;;11.70;;
795;SDS011;381;48.770;9.188;2022-07-23T22:36:41;12.20;;;11.40;;
795;SDS011;381;48.770;9.188;2022-07-23T22:41:43;11.43;;;10.53;;
795;SDS011;381;48.770;9.188;2022-07-23T22:46:47;13.27;;;12.13;;
795;SDS011;381;48.770;9.188;2022-07-23T22:51:49;12.10;;;11.13;;
795;SDS011;381;48.770;9.188;2022-07-23T22:56:51;12.50;;;11.60;;
795;SDS011;381;48.770;9.188;2022-07-23T23:01:55;11.90;;;11.00;;
795;SDS011;381;48.770;9.188;2022-07-23T23:06:57;12.70;;;11.70;;
795;SDS011;381;48.770;9.188;2022-07-23T23:11:59;14.07;;;12.90;;
795;SDS011;381;48.770;9.188;2022-07-23T23:17:03;12.40;;;11.50;;
795;SDS011;381;48.770;9.188;2022-07-23T23:22:05;12.37;;;11.33;;
795;SDS011;381;48.770;9.188;2022-07-23T23:27:07;12.73;;;11.63;;
795;SDS011;381;48.770;9.188;2022-07-23T23:32:11;12.00;;;10.80;;
795;SDS011;381;48.770;9.188;2022-07-23T23:37:13;11.67;;;10.70;;
795;SDS011;381;48.770;9.188;2022-07-23T23:42:15;11.83;;;10.93;;
795;SDS011;381;48.770;9.188;2022-07-23T23:47:19;11.73;;;10.73;;
795;SDS011;381;48.770;9.188;2022-07-23T23:52:21;11.30;;;10.30;;
795;SDS011;381;48.770;9.188;2022-07-23T23:57:23;11.53;;;10.63;;
